SKG024 KMIA-MYEM
Flight info
| Callsign | SKG024 |
|---|---|
| Flight time | 0h 35m |
| Altitude | 33000 |
| Route | KLADA2 RAJAY |
| Aircraft | C700/M-SBDGHM1RWXY/LB2 |
Departure
| Time | 2026-04-24 22:59 |
|---|---|
| Airport | Miami International Airport (KMIA) |
Arrival
| Time | 2026-04-24 23:35 |
|---|---|
| Airport | Governor's Harbour Airport (MYEM) |
| Time | Latitude | Longitude | Altitude | Speed | Heading |
|---|---|---|---|---|---|
| 2026-04-24 22:40 | 25.80582 | -80.27233 | 13 ft | 0 kts | 0° |
| 2026-04-24 22:50 | 25.80585 | -80.27240 | 13 ft | 2 kts | 269° |
| 2026-04-24 22:51 | 25.80573 | -80.27242 | 13 ft | 0 kts | 177° |
| 2026-04-24 22:52 | 25.80569 | -80.27242 | 13 ft | 4 kts | 177° |
| 2026-04-24 22:52 | 25.80513 | -80.27262 | 15 ft | 12 kts | 249° |
| 2026-04-24 22:52 | 25.80506 | -80.27394 | 14 ft | 21 kts | 268° |
| 2026-04-24 22:52 | 25.80506 | -80.27572 | 15 ft | 24 kts | 272° |
| 2026-04-24 22:53 | 25.80500 | -80.27761 | 19 ft | 26 kts | 267° |
| 2026-04-24 22:53 | 25.80491 | -80.27973 | 17 ft | 30 kts | 268° |
| 2026-04-24 22:53 | 25.80480 | -80.28216 | 19 ft | 31 kts | 268° |
| 2026-04-24 22:53 | 25.80470 | -80.28475 | 14 ft | 36 kts | 267° |
| 2026-04-24 22:54 | 25.80459 | -80.28750 | 16 ft | 35 kts | 268° |
| 2026-04-24 22:54 | 25.80450 | -80.28976 | 12 ft | 28 kts | 266° |
| 2026-04-24 22:54 | 25.80438 | -80.29198 | 17 ft | 30 kts | 265° |
| 2026-04-24 22:54 | 25.80429 | -80.29441 | 14 ft | 34 kts | 268° |
| 2026-04-24 22:55 | 25.80422 | -80.29677 | 18 ft | 29 kts | 267° |
| 2026-04-24 22:55 | 25.80411 | -80.29909 | 16 ft | 28 kts | 267° |
| 2026-04-24 22:55 | 25.80403 | -80.30105 | 16 ft | 19 kts | 266° |
| 2026-04-24 22:55 | 25.80377 | -80.30146 | 16 ft | 0 kts | 186° |
| 2026-04-24 22:58 | 25.80368 | -80.30147 | 16 ft | 7 kts | 183° |
| 2026-04-24 22:58 | 25.80296 | -80.30137 | 14 ft | 9 kts | 138° |
| 2026-04-24 22:58 | 25.80292 | -80.30119 | 14 ft | 0 kts | 85° |
| 2026-04-24 22:59 | 25.80292 | -80.30117 | 14 ft | 0 kts | 87° |
| 2026-04-24 22:59 | 25.80298 | -80.29980 | 17 ft | 62 kts | 86° |
| 2026-04-24 22:59 | 25.80436 | -80.27741 | 1036 ft | 189 kts | 84° |
| 2026-04-24 23:00 | 25.80488 | -80.26270 | 2372 ft | 196 kts | 99° |
| 2026-04-24 23:00 | 25.80063 | -80.24766 | 3678 ft | 217 kts | 114° |
| 2026-04-24 23:00 | 25.79291 | -80.23211 | 4867 ft | 244 kts | 118° |
| 2026-04-24 23:00 | 25.78454 | -80.21504 | 6336 ft | 256 kts | 117° |
| 2026-04-24 23:01 | 25.77602 | -80.19712 | 7726 ft | 272 kts | 117° |
| 2026-04-24 23:01 | 25.76695 | -80.17800 | 8993 ft | 288 kts | 117° |
| 2026-04-24 23:01 | 25.75718 | -80.15811 | 10336 ft | 300 kts | 119° |
| 2026-04-24 23:01 | 25.74655 | -80.13701 | 11266 ft | 327 kts | 119° |
| 2026-04-24 23:02 | 25.73538 | -80.11440 | 12569 ft | 337 kts | 118° |
| 2026-04-24 23:02 | 25.72657 | -80.08986 | 13928 ft | 348 kts | 110° |
| 2026-04-24 23:02 | 25.71843 | -80.06424 | 15158 ft | 356 kts | 111° |
| 2026-04-24 23:02 | 25.70978 | -80.03828 | 16398 ft | 363 kts | 112° |
| 2026-04-24 23:03 | 25.70087 | -80.01181 | 17612 ft | 370 kts | 112° |
| 2026-04-24 23:03 | 25.69189 | -79.98472 | 18729 ft | 378 kts | 112° |
| 2026-04-24 23:03 | 25.68266 | -79.95669 | 19748 ft | 386 kts | 112° |
| 2026-04-24 23:03 | 25.67332 | -79.92852 | 20736 ft | 393 kts | 112° |
| 2026-04-24 23:04 | 25.66376 | -79.89984 | 21666 ft | 400 kts | 112° |
| 2026-04-24 23:04 | 25.65404 | -79.87062 | 22570 ft | 408 kts | 112° |
| 2026-04-24 23:04 | 25.64416 | -79.84088 | 23465 ft | 415 kts | 112° |
| 2026-04-24 23:04 | 25.63410 | -79.81065 | 24237 ft | 421 kts | 112° |
| 2026-04-24 23:05 | 25.62389 | -79.78003 | 25038 ft | 427 kts | 112° |
| 2026-04-24 23:05 | 25.61351 | -79.74893 | 25809 ft | 434 kts | 112° |
| 2026-04-24 23:05 | 25.60296 | -79.71734 | 26533 ft | 440 kts | 112° |
| 2026-04-24 23:05 | 25.59311 | -79.68497 | 27209 ft | 448 kts | 108° |
| 2026-04-24 23:06 | 25.58461 | -79.65156 | 27920 ft | 454 kts | 107° |
| 2026-04-24 23:06 | 25.57603 | -79.61770 | 28539 ft | 461 kts | 107° |
| 2026-04-24 23:06 | 25.56708 | -79.58329 | 29214 ft | 467 kts | 108° |
| 2026-04-24 23:06 | 25.55795 | -79.54851 | 29888 ft | 474 kts | 108° |
| 2026-04-24 23:07 | 25.54880 | -79.51319 | 30500 ft | 480 kts | 108° |
| 2026-04-24 23:07 | 25.53962 | -79.47753 | 31096 ft | 484 kts | 108° |
| 2026-04-24 23:07 | 25.53027 | -79.44154 | 31644 ft | 489 kts | 108° |
| 2026-04-24 23:07 | 25.52078 | -79.40526 | 32149 ft | 494 kts | 109° |
| 2026-04-24 23:08 | 25.51121 | -79.36853 | 32653 ft | 499 kts | 109° |
| 2026-04-24 23:08 | 25.50154 | -79.33139 | 32962 ft | 508 kts | 109° |
| 2026-04-24 23:08 | 25.49156 | -79.29325 | 32963 ft | 524 kts | 109° |
| 2026-04-24 23:08 | 25.48128 | -79.25395 | 32979 ft | 539 kts | 108° |
| 2026-04-24 23:09 | 25.47059 | -79.21308 | 32978 ft | 552 kts | 108° |
| 2026-04-24 23:09 | 25.44980 | -79.13339 | 32958 ft | 516 kts | 109° |
| 2026-04-24 23:09 | 25.43957 | -79.09472 | 32965 ft | 533 kts | 109° |
| 2026-04-24 23:10 | 25.42896 | -79.05474 | 32970 ft | 547 kts | 109° |
| 2026-04-24 23:10 | 25.40776 | -78.97370 | 32977 ft | 549 kts | 109° |
| 2026-04-24 23:11 | 25.38630 | -78.89275 | 32982 ft | 548 kts | 109° |
| 2026-04-24 23:11 | 25.36524 | -78.81302 | 32974 ft | 538 kts | 109° |
| 2026-04-24 23:12 | 25.34402 | -78.73322 | 32977 ft | 541 kts | 109° |
| 2026-04-24 23:12 | 25.32298 | -78.65394 | 32992 ft | 528 kts | 107° |
| 2026-04-24 23:13 | 25.30241 | -78.57695 | 32976 ft | 528 kts | 107° |
| 2026-04-24 23:13 | 25.28507 | -78.51197 | 32978 ft | 523 kts | 107° |
| 2026-04-24 23:14 | 25.27467 | -78.43250 | 32964 ft | 526 kts | 89° |
| 2026-04-24 23:14 | 25.28190 | -78.35231 | 32970 ft | 523 kts | 82° |
| 2026-04-24 23:15 | 25.29090 | -78.27271 | 32969 ft | 522 kts | 82° |
| 2026-04-24 23:15 | 25.29972 | -78.19279 | 32974 ft | 526 kts | 83° |
| 2026-04-24 23:16 | 25.30030 | -78.11205 | 32980 ft | 524 kts | 90° |
| 2026-04-24 23:16 | 25.30014 | -78.03163 | 32976 ft | 523 kts | 89° |
| 2026-04-24 23:16 | 25.29995 | -77.99138 | 32680 ft | 521 kts | 90° |
| 2026-04-24 23:17 | 25.29971 | -77.95210 | 32019 ft | 501 kts | 90° |
| 2026-04-24 23:17 | 25.29953 | -77.91441 | 31370 ft | 481 kts | 90° |
| 2026-04-24 23:17 | 25.29943 | -77.87814 | 30751 ft | 464 kts | 90° |
| 2026-04-24 23:17 | 25.29929 | -77.84310 | 30153 ft | 449 kts | 90° |
| 2026-04-24 23:18 | 25.29906 | -77.80915 | 29528 ft | 435 kts | 90° |
| 2026-04-24 23:18 | 25.29885 | -77.77627 | 28963 ft | 422 kts | 90° |
| 2026-04-24 23:18 | 25.29868 | -77.74411 | 28414 ft | 416 kts | 90° |
| 2026-04-24 23:18 | 25.29850 | -77.71174 | 27861 ft | 415 kts | 90° |
| 2026-04-24 23:19 | 25.29829 | -77.68018 | 27321 ft | 416 kts | 90° |
| 2026-04-24 23:19 | 25.29830 | -77.64819 | 26778 ft | 416 kts | 88° |
| 2026-04-24 23:19 | 25.30054 | -77.61602 | 26146 ft | 414 kts | 83° |
| 2026-04-24 23:19 | 25.30413 | -77.58450 | 25388 ft | 411 kts | 82° |
| 2026-04-24 23:20 | 25.30707 | -77.55332 | 24664 ft | 405 kts | 85° |
| 2026-04-24 23:20 | 25.30882 | -77.52250 | 23963 ft | 399 kts | 87° |
| 2026-04-24 23:20 | 25.31064 | -77.49215 | 23226 ft | 393 kts | 85° |
| 2026-04-24 23:20 | 25.31305 | -77.46228 | 22435 ft | 388 kts | 84° |
| 2026-04-24 23:21 | 25.31543 | -77.43307 | 22015 ft | 374 kts | 85° |
| 2026-04-24 23:21 | 25.31746 | -77.40465 | 21716 ft | 370 kts | 86° |
| 2026-04-24 23:21 | 25.31944 | -77.37602 | 21431 ft | 377 kts | 85° |
| 2026-04-24 23:21 | 25.32159 | -77.34697 | 21163 ft | 380 kts | 85° |
| 2026-04-24 23:22 | 25.32374 | -77.31791 | 20903 ft | 379 kts | 85° |
| 2026-04-24 23:22 | 25.32583 | -77.28897 | 20640 ft | 376 kts | 85° |
| 2026-04-24 23:22 | 25.32789 | -77.26026 | 20379 ft | 374 kts | 85° |
| 2026-04-24 23:22 | 25.32995 | -77.23173 | 20122 ft | 372 kts | 85° |
| 2026-04-24 23:23 | 25.33200 | -77.20332 | 19869 ft | 370 kts | 85° |
| 2026-04-24 23:23 | 25.33402 | -77.17520 | 19819 ft | 364 kts | 85° |
| 2026-04-24 23:23 | 25.33603 | -77.14713 | 19815 ft | 370 kts | 85° |
| 2026-04-24 23:23 | 25.33805 | -77.11871 | 19824 ft | 372 kts | 85° |
| 2026-04-24 23:24 | 25.34003 | -77.09017 | 19636 ft | 376 kts | 86° |
| 2026-04-24 23:24 | 25.34186 | -77.06103 | 18955 ft | 379 kts | 86° |
| 2026-04-24 23:24 | 25.34348 | -77.03222 | 18294 ft | 372 kts | 86° |
| 2026-04-24 23:24 | 25.34489 | -77.00398 | 17541 ft | 365 kts | 87° |
| 2026-04-24 23:25 | 25.34610 | -76.97616 | 16799 ft | 359 kts | 87° |
| 2026-04-24 23:25 | 25.34711 | -76.94878 | 16082 ft | 354 kts | 88° |
| 2026-04-24 23:25 | 25.34794 | -76.92178 | 15363 ft | 349 kts | 88° |
| 2026-04-24 23:25 | 25.34858 | -76.89505 | 14631 ft | 346 kts | 88° |
| 2026-04-24 23:26 | 25.34911 | -76.86858 | 13913 ft | 342 kts | 87° |
| 2026-04-24 23:26 | 25.35274 | -76.84276 | 13102 ft | 339 kts | 75° |
| 2026-04-24 23:26 | 25.35921 | -76.81787 | 12392 ft | 334 kts | 72° |
| 2026-04-24 23:26 | 25.36515 | -76.79333 | 11746 ft | 327 kts | 76° |
| 2026-04-24 23:27 | 25.36942 | -76.76852 | 11111 ft | 322 kts | 80° |
| 2026-04-24 23:27 | 25.37313 | -76.74467 | 10497 ft | 316 kts | 79° |
| 2026-04-24 23:27 | 25.37751 | -76.72068 | 9887 ft | 312 kts | 77° |
| 2026-04-24 23:27 | 25.38199 | -76.69739 | 9210 ft | 307 kts | 77° |
| 2026-04-24 23:28 | 25.38620 | -76.67438 | 8558 ft | 304 kts | 78° |
| 2026-04-24 23:28 | 25.39025 | -76.65160 | 7914 ft | 300 kts | 79° |
| 2026-04-24 23:28 | 25.39429 | -76.62914 | 7284 ft | 296 kts | 79° |
| 2026-04-24 23:28 | 25.39836 | -76.60693 | 6674 ft | 293 kts | 79° |
| 2026-04-24 23:29 | 25.40234 | -76.58504 | 6095 ft | 288 kts | 79° |
| 2026-04-24 23:29 | 25.40621 | -76.56348 | 5499 ft | 284 kts | 79° |
| 2026-04-24 23:29 | 25.41004 | -76.54215 | 4907 ft | 281 kts | 80° |
| 2026-04-24 23:29 | 25.41385 | -76.52116 | 4467 ft | 273 kts | 79° |
| 2026-04-24 23:30 | 25.41751 | -76.50100 | 4128 ft | 262 kts | 80° |
| 2026-04-24 23:30 | 25.42083 | -76.48154 | 3790 ft | 253 kts | 84° |
| 2026-04-24 23:30 | 25.42051 | -76.46247 | 3469 ft | 245 kts | 100° |
| 2026-04-24 23:30 | 25.41571 | -76.44477 | 3150 ft | 237 kts | 115° |
| 2026-04-24 23:31 | 25.40723 | -76.42956 | 2871 ft | 230 kts | 129° |
| 2026-04-24 23:31 | 25.39583 | -76.41747 | 2568 ft | 226 kts | 143° |
| 2026-04-24 23:31 | 25.38320 | -76.40781 | 2263 ft | 215 kts | 144° |
| 2026-04-24 23:31 | 25.37127 | -76.39854 | 1971 ft | 205 kts | 144° |
| 2026-04-24 23:32 | 25.35982 | -76.38957 | 1709 ft | 199 kts | 143° |
| 2026-04-24 23:32 | 25.34917 | -76.38130 | 1468 ft | 173 kts | 143° |
| 2026-04-24 23:32 | 25.33991 | -76.37414 | 1231 ft | 152 kts | 143° |
| 2026-04-24 23:32 | 25.33236 | -76.36826 | 1047 ft | 120 kts | 142° |
| 2026-04-24 23:33 | 25.32577 | -76.36308 | 881 ft | 114 kts | 142° |
| 2026-04-24 23:33 | 25.32141 | -76.35964 | 786 ft | 115 kts | 142° |
| 2026-04-24 23:33 | 25.31269 | -76.35273 | 573 ft | 119 kts | 141° |
| 2026-04-24 23:33 | 25.30607 | -76.34754 | 396 ft | 114 kts | 143° |
| 2026-04-24 23:34 | 25.29959 | -76.34247 | 242 ft | 115 kts | 143° |
| 2026-04-24 23:34 | 25.29299 | -76.33734 | 97 ft | 116 kts | 142° |
| 2026-04-24 23:34 | 25.28680 | -76.33260 | 29 ft | 90 kts | 146° |
| 2026-04-24 23:34 | 25.28263 | -76.32937 | 26 ft | 63 kts | 145° |
| 2026-04-24 23:35 | 25.27942 | -76.32690 | 30 ft | 49 kts | 145° |
| 2026-04-24 23:35 | 25.27836 | -76.32509 | 29 ft | 16 kts | 43° |
| 2026-04-24 23:35 | 25.27861 | -76.32406 | 28 ft | 13 kts | 143° |
| 2026-04-24 23:35 | 25.27838 | -76.32335 | 28 ft | 2 kts | 59° |